Time;durP1;ratioP1;P1;durP2;ratioP2;P2;SDS_P1;SDS_P2;PMS_P1;PMS_P2;Temp;Humidity;BMP_temperature;BMP_pressure;BME280_temperature;BME280_humidity;BME280_pressure;Samples;Min_cycle;Max_cycle;Signal;HPM_P1;HPM_P2
2021/08/25 00:01:09;;;;;;;3.60;3.20;;;22.00;46.80;;;;;;4917151;29;20028;-75
2021/08/25 00:03:35;;;;;;;4.47;2.90;;;22.00;46.80;;;;;;4917320;29;20039;-75
2021/08/25 00:06:01;;;;;;;5.28;2.33;;;22.00;46.70;;;;;;4918199;29;20036;-75
2021/08/25 00:08:27;;;;;;;3.45;3.13;;;21.90;46.60;;;;;;4917023;29;20036;-75
2021/08/25 00:10:52;;;;;;;4.15;3.10;;;21.90;46.50;;;;;;4917201;29;20385;-75
2021/08/25 00:13:20;;;;;;;5.93;3.25;;;21.90;46.60;;;;;;4917282;29;20024;-75
2021/08/25 00:15:46;;;;;;;3.20;2.90;;;21.90;46.70;;;;;;4929108;29;20031;-76
2021/08/25 00:18:12;;;;;;;5.38;3.35;;;21.90;46.90;;;;;;4935791;29;20103;-75
2021/08/25 00:20:39;;;;;;;4.85;2.92;;;21.90;47.00;;;;;;4934351;29;20044;-75
2021/08/25 00:23:06;;;;;;;4.20;2.83;;;21.80;46.90;;;;;;4935592;29;20374;-75
2021/08/25 00:25:32;;;;;;;6.00;3.13;;;21.90;46.90;;;;;;4935984;29;20076;-75
2021/08/25 00:27:58;;;;;;;3.97;3.30;;;21.80;46.80;;;;;;4935840;29;20106;-75
2021/08/25 00:30:24;;;;;;;4.13;3.20;;;21.90;47.00;;;;;;4930962;29;20092;-75
2021/08/25 00:32:50;;;;;;;3.60;3.30;;;21.80;47.20;;;;;;4940196;29;20032;-75
2021/08/25 00:35:17;;;;;;;4.65;3.20;;;21.80;47.30;;;;;;4935241;29;20031;-75
2021/08/25 00:37:42;;;;;;;5.50;3.25;;;21.80;47.40;;;;;;4936231;29;20025;-75
2021/08/25 00:40:09;;;;;;;4.03;3.08;;;21.80;47.40;;;;;;4933986;29;20087;-75
2021/08/25 00:42:35;;;;;;;3.35;3.05;;;21.90;47.40;;;;;;4935395;29;20020;-75
2021/08/25 00:45:02;;;;;;;3.83;3.10;;;21.90;47.50;;;;;;4935542;29;20070;-75
2021/08/25 00:47:33;;;;;;;4.75;3.20;;;21.90;47.50;;;;;;4917720;29;20039;-75
2021/08/25 00:49:59;;;;;;;3.80;3.40;;;22.00;47.80;;;;;;4906114;29;20067;-75
2021/08/25 00:52:25;;;;;;;3.95;3.00;;;22.00;47.70;;;;;;4935710;29;20024;-75
2021/08/25 00:54:51;;;;;;;3.13;2.85;;;22.00;47.50;;;;;;4935246;29;20032;-75
2021/08/25 00:57:17;;;;;;;4.00;2.65;;;22.00;47.60;;;;;;4930075;29;20036;-75
2021/08/25 00:59:43;;;;;;;3.72;2.80;;;22.00;47.50;;;;;;4919777;29;20031;-75
2021/08/25 01:02:27;;;;;;;5.50;3.13;;;22.00;47.80;;;;;;4934604;29;20148;-75
2021/08/25 01:04:55;;;;;;;4.47;4.00;;;22.10;47.90;;;;;;4935577;29;20127;-75
2021/08/25 01:07:22;;;;;;;4.63;3.20;;;22.10;48.10;;;;;;4935973;29;20039;-75
2021/08/25 01:09:49;;;;;;;8.57;4.05;;;22.10;48.50;;;;;;4915751;29;20543;-75
2021/08/25 01:12:15;;;;;;;4.88;3.72;;;22.10;48.80;;;;;;4902354;29;20392;-75
2021/08/25 01:14:41;;;;;;;3.00;2.67;;;22.20;48.90;;;;;;4912355;29;20039;-76
2021/08/25 01:17:09;;;;;;;5.07;3.15;;;22.10;48.70;;;;;;4935396;29;20473;-76
2021/08/25 01:20:02;;;;;;;3.83;2.95;;;22.20;48.50;;;;;;4936286;29;20128;-76
2021/08/25 01:22:28;;;;;;;6.05;3.95;;;22.20;48.50;;;;;;4920172;29;20099;-76
2021/08/25 01:24:55;;;;;;;5.53;4.25;;;22.20;48.90;;;;;;4923966;29;20119;-76
2021/08/25 01:27:24;;;;;;;3.85;3.50;;;22.20;49.30;;;;;;4919951;29;20039;-74
2021/08/25 01:29:51;;;;;;;3.50;3.20;;;22.10;49.00;;;;;;4920852;29;20040;-78
2021/08/25 01:32:18;;;;;;;4.05;3.55;;;22.10;49.00;;;;;;4933878;29;20395;-74
2021/08/25 01:34:57;;;;;;;4.70;3.30;;;22.10;49.00;;;;;;4937272;29;20507;-75
2021/08/25 01:37:25;;;;;;;6.60;3.85;;;22.10;49.20;;;;;;4936065;29;20058;-75
2021/08/25 01:39:52;;;;;;;4.07;3.50;;;22.10;49.30;;;;;;4950564;29;20035;-75
2021/08/25 01:42:19;;;;;;;4.68;3.20;;;22.10;49.30;;;;;;4938404;29;20102;-75
2021/08/25 01:44:46;;;;;;;4.75;3.53;;;22.20;49.40;;;;;;4921573;29;20051;-74
2021/08/25 01:47:16;;;;;;;3.63;3.30;;;22.20;49.40;;;;;;4938737;29;20031;-74
2021/08/25 01:49:48;;;;;;;5.53;4.53;;;22.10;49.40;;;;;;4935911;29;20043;-74
2021/08/25 01:52:15;;;;;;;4.78;3.70;;;22.20;50.30;;;;;;4919511;29;20028;-75
2021/08/25 01:54:51;;;;;;;5.38;4.13;;;22.20;50.50;;;;;;4919761;29;20044;-74
2021/08/25 01:57:17;;;;;;;4.85;4.40;;;22.20;50.60;;;;;;4919712;29;20036;-74
2021/08/25 01:59:43;;;;;;;5.60;4.00;;;22.10;51.20;;;;;;4920676;29;20048;-75
2021/08/25 02:02:09;;;;;;;6.05;3.95;;;21.90;51.10;;;;;;4931661;29;20060;-75
2021/08/25 02:04:35;;;;;;;6.55;5.05;;;21.80;50.80;;;;;;4919544;29;20036;-75
2021/08/25 02:07:01;;;;;;;6.65;4.97;;;21.70;51.50;;;;;;4919366;29;20036;-75
2021/08/25 02:09:27;;;;;;;9.07;5.38;;;21.70;52.00;;;;;;4918920;29;20044;-75
2021/08/25 02:11:53;;;;;;;9.85;6.38;;;21.60;52.20;;;;;;4937856;29;20074;-75
2021/08/25 02:14:18;;;;;;;7.47;6.38;;;21.50;52.10;;;;;;4919854;29;20028;-75
2021/08/25 02:16:44;;;;;;;9.32;6.60;;;21.30;52.40;;;;;;4919643;29;20032;-74
2021/08/25 02:19:11;;;;;;;8.77;6.82;;;21.20;52.80;;;;;;4919783;29;20047;-74
2021/08/25 02:21:37;;;;;;;10.88;7.57;;;21.20;52.80;;;;;;4931567;29;20036;-75
2021/08/25 02:24:03;;;;;;;12.18;8.30;;;21.10;52.80;;;;;;4918819;29;20075;-74
2021/08/25 02:26:29;;;;;;;10.43;7.68;;;21.10;52.80;;;;;;4918876;29;20047;-75
2021/08/25 02:28:55;;;;;;;12.43;7.85;;;21.00;52.80;;;;;;4918461;29;20024;-74
2021/08/25 02:31:21;;;;;;;11.35;8.15;;;21.00;53.20;;;;;;4922649;29;20060;-73
2021/08/25 02:33:48;;;;;;;11.55;8.32;;;21.10;53.00;;;;;;4918631;29;20036;-75
2021/08/25 02:36:16;;;;;;;11.38;8.20;;;21.00;53.40;;;;;;4937920;29;20042;-75
2021/08/25 02:38:42;;;;;;;12.43;8.45;;;21.00;53.10;;;;;;4935895;29;20456;-75
2021/08/25 02:41:11;;;;;;;14.23;8.98;;;21.00;52.20;;;;;;4937177;29;20483;-76
2021/08/25 02:43:37;;;;;;;14.57;8.93;;;21.10;51.90;;;;;;4927309;29;20066;-75
2021/08/25 02:46:04;;;;;;;13.60;8.75;;;21.00;52.30;;;;;;4920034;29;20028;-74
2021/08/25 02:48:30;;;;;;;13.68;8.75;;;21.00;52.60;;;;;;4918803;29;20079;-75
2021/08/25 02:50:55;;;;;;;14.30;9.32;;;21.00;52.20;;;;;;4928984;29;20465;-75
2021/08/25 02:53:21;;;;;;;14.65;9.23;;;21.00;52.00;;;;;;4937568;29;20428;-75
2021/08/25 02:55:47;;;;;;;17.45;9.77;;;21.00;52.00;;;;;;4937141;29;20079;-75
2021/08/25 02:58:13;;;;;;;14.05;8.40;;;21.10;52.70;;;;;;4936663;29;20040;-75
2021/08/25 03:00:40;;;;;;;13.77;8.88;;;21.10;52.30;;;;;;4919215;29;20068;-76
2021/08/25 03:03:05;;;;;;;17.92;9.68;;;21.10;51.70;;;;;;4933183;29;20038;-75
2021/08/25 03:05:31;;;;;;;16.40;9.43;;;21.20;51.60;;;;;;4935611;29;20035;-75
2021/08/25 03:07:57;;;;;;;17.95;9.82;;;21.30;51.90;;;;;;4918034;29;20032;-75
2021/08/25 03:10:23;;;;;;;13.27;9.30;;;21.30;51.60;;;;;;4933789;29;20040;-76
2021/08/25 03:12:48;;;;;;;12.20;8.57;;;21.30;51.40;;;;;;4936586;29;20031;-74
2021/08/25 03:15:15;;;;;;;16.33;8.70;;;21.40;51.60;;;;;;4931270;29;20032;-75
2021/08/25 03:17:41;;;;;;;11.90;8.65;;;21.50;51.40;;;;;;4918360;29;20471;-74
2021/08/25 03:20:08;;;;;;;12.23;8.07;;;21.60;51.20;;;;;;4922016;29;20028;-75
2021/08/25 03:22:35;;;;;;;13.75;7.75;;;21.70;50.90;;;;;;4919202;29;20039;-75
2021/08/25 03:25:01;;;;;;;9.88;7.05;;;21.80;51.10;;;;;;4918047;29;20103;-75
2021/08/25 03:27:27;;;;;;;11.50;7.35;;;21.90;51.30;;;;;;4917698;29;20032;-76
2021/08/25 03:29:52;;;;;;;11.10;7.35;;;21.90;51.30;;;;;;4928141;29;20499;-76
2021/08/25 03:32:18;;;;;;;10.13;6.55;;;22.00;51.40;;;;;;4919766;29;20032;-76
2021/08/25 03:34:45;;;;;;;11.20;7.10;;;22.00;51.20;;;;;;4918106;29;20374;-76
2021/08/25 03:37:10;;;;;;;8.25;6.13;;;22.10;51.20;;;;;;4917883;29;20028;-76
2021/08/25 03:39:36;;;;;;;8.77;6.57;;;22.10;51.20;;;;;;4935838;29;20039;-76
2021/08/25 03:42:02;;;;;;;7.13;5.57;;;22.20;51.20;;;;;;4936269;29;20476;-76
2021/08/25 03:44:28;;;;;;;10.90;5.70;;;22.20;51.00;;;;;;4915125;29;20396;-76
2021/08/25 03:46:54;;;;;;;10.20;6.03;;;22.20;50.90;;;;;;4941595;29;20102;-76
2021/08/25 03:49:19;;;;;;;8.23;6.07;;;22.20;51.10;;;;;;4936278;29;20079;-76
2021/08/25 03:51:45;;;;;;;8.88;5.97;;;22.30;51.30;;;;;;4917510;29;20028;-76
2021/08/25 03:54:11;;;;;;;10.35;6.72;;;22.30;51.30;;;;;;4918873;29;20036;-74
2021/08/25 03:56:36;;;;;;;10.70;7.50;;;22.20;51.10;;;;;;4916921;29;20103;-75
2021/08/25 03:59:03;;;;;;;12.15;8.65;;;22.10;51.40;;;;;;4920408;29;20032;-76
2021/08/25 04:01:29;;;;;;;14.32;8.80;;;21.90;51.70;;;;;;4935492;29;20368;-74
2021/08/25 04:03:55;;;;;;;19.50;9.75;;;21.80;52.10;;;;;;4939069;29;20034;-75
2021/08/25 04:06:21;;;;;;;16.63;9.35;;;21.70;52.40;;;;;;4949373;29;20027;-74
2021/08/25 04:08:47;;;;;;;20.13;9.73;;;21.70;52.70;;;;;;4936264;29;20119;-75
2021/08/25 04:11:18;;;;;;;20.10;10.27;;;21.60;52.80;;;;;;4917051;29;20068;-73
2021/08/25 04:13:44;;;;;;;17.95;10.23;;;21.60;53.50;;;;;;4917325;29;20028;-75
2021/08/25 04:16:10;;;;;;;18.50;10.65;;;21.60;52.90;;;;;;4916801;29;20035;-74
2021/08/25 04:18:35;;;;;;;19.48;11.27;;;21.60;53.00;;;;;;4924255;29;20028;-75
2021/08/25 04:21:01;;;;;;;16.45;10.70;;;21.60;53.00;;;;;;4917889;29;20051;-74
2021/08/25 04:23:26;;;;;;;17.10;11.02;;;21.60;53.00;;;;;;4917405;29;20036;-76
2021/08/25 04:25:52;;;;;;;19.42;11.45;;;21.70;53.10;;;;;;4909731;29;20051;-75
2021/08/25 04:28:19;;;;;;;20.70;12.05;;;21.70;53.30;;;;;;4936284;29;20032;-75
2021/08/25 04:30:44;;;;;;;22.65;12.60;;;21.80;53.50;;;;;;4928426;29;20060;-75
2021/08/25 04:33:10;;;;;;;23.33;13.48;;;21.80;53.60;;;;;;4913336;29;20045;-75
2021/08/25 04:35:36;;;;;;;22.45;13.55;;;21.80;53.40;;;;;;4923331;29;20066;-75
2021/08/25 04:38:02;;;;;;;18.75;13.00;;;21.80;53.20;;;;;;4943646;29;20028;-75
2021/08/25 04:40:28;;;;;;;20.40;12.88;;;21.70;53.20;;;;;;4941203;29;20035;-76
2021/08/25 04:42:53;;;;;;;19.98;12.73;;;21.80;53.20;;;;;;4942828;29;20024;-75
2021/08/25 04:45:19;;;;;;;19.33;12.93;;;21.80;53.40;;;;;;4945778;29;20031;-76
2021/08/25 04:47:45;;;;;;;21.45;13.27;;;21.80;53.50;;;;;;4944162;29;20016;-75
2021/08/25 04:50:11;;;;;;;16.83;11.48;;;21.80;53.70;;;;;;4944986;29;20035;-76
2021/08/25 04:52:37;;;;;;;21.23;13.23;;;21.90;53.50;;;;;;4943602;28;20032;-74
2021/08/25 04:55:03;;;;;;;18.25;11.88;;;22.00;53.40;;;;;;4947937;29;20476;-75
2021/08/25 04:57:29;;;;;;;19.20;12.00;;;22.00;53.40;;;;;;4947239;29;20028;-75
2021/08/25 04:59:54;;;;;;;30.92;12.57;;;22.00;53.40;;;;;;4930279;29;20127;-74
2021/08/25 05:02:20;;;;;;;16.60;11.35;;;22.10;53.50;;;;;;4920621;29;20161;-74
2021/08/25 05:04:48;;;;;;;22.75;10.88;;;22.20;53.60;;;;;;4920344;29;20473;-74
2021/08/25 05:07:15;;;;;;;23.77;10.80;;;22.30;53.50;;;;;;4922743;29;20114;-75
2021/08/25 05:09:40;;;;;;;21.23;10.38;;;22.40;53.40;;;;;;4927828;29;20167;-76
2021/08/25 05:12:06;;;;;;;17.63;9.98;;;22.40;53.20;;;;;;4938669;29;20110;-75
2021/08/25 05:14:32;;;;;;;15.43;9.02;;;22.50;53.20;;;;;;4937203;29;20024;-76
2021/08/25 05:16:58;;;;;;;13.35;8.82;;;22.50;52.60;;;;;;4939073;29;20106;-74
2021/08/25 05:19:24;;;;;;;13.15;8.60;;;22.60;52.60;;;;;;4939333;29;20184;-74
2021/08/25 05:21:50;;;;;;;18.20;8.88;;;22.60;52.90;;;;;;4941010;29;20036;-75
2021/08/25 05:24:15;;;;;;;15.00;8.98;;;22.60;53.00;;;;;;4934508;29;20032;-75
2021/08/25 05:26:41;;;;;;;14.23;8.30;;;22.80;53.20;;;;;;4919920;29;20099;-75
2021/08/25 05:29:07;;;;;;;13.88;8.60;;;22.80;53.10;;;;;;4919606;29;20111;-75
2021/08/25 05:31:32;;;;;;;12.95;8.88;;;22.90;53.10;;;;;;4933555;29;20122;-77
2021/08/25 05:33:58;;;;;;;11.25;8.07;;;22.90;53.00;;;;;;4945119;29;20035;-77
2021/08/25 05:36:24;;;;;;;12.07;7.97;;;23.00;52.90;;;;;;4954515;29;20519;-78
2021/08/25 05:38:51;;;;;;;10.13;7.32;;;23.00;52.60;;;;;;4939940;29;20055;-77
2021/08/25 05:41:16;;;;;;;8.85;7.03;;;23.10;52.40;;;;;;4912390;29;20038;-73
2021/08/25 05:43:42;;;;;;;7.82;5.88;;;23.20;52.10;;;;;;4924997;29;20465;-75
2021/08/25 05:46:08;;;;;;;8.02;5.25;;;23.20;51.90;;;;;;4941295;29;20511;-74
2021/08/25 05:48:34;;;;;;;5.95;4.90;;;23.20;51.60;;;;;;4937555;29;20027;-76
2021/08/25 05:50:59;;;;;;;8.48;4.55;;;23.20;51.40;;;;;;4946277;29;20421;-76
2021/08/25 05:53:25;;;;;;;4.88;4.40;;;23.30;51.50;;;;;;4938710;29;20192;-75
2021/08/25 05:55:51;;;;;;;6.60;4.68;;;23.30;51.70;;;;;;4938502;29;20082;-74
2021/08/25 05:58:17;;;;;;;6.78;4.40;;;23.30;51.90;;;;;;4921388;29;20365;-75
2021/08/25 06:00:42;;;;;;;7.43;4.32;;;23.40;52.00;;;;;;4938558;29;20067;-75
2021/08/25 06:03:08;;;;;;;6.47;4.03;;;23.40;52.40;;;;;;4948864;29;20522;-75
2021/08/25 06:05:35;;;;;;;5.57;3.72;;;23.50;52.60;;;;;;4956418;28;20515;-76
2021/08/25 06:08:01;;;;;;;4.45;3.13;;;23.60;52.70;;;;;;4957368;29;20043;-76
2021/08/25 06:10:27;;;;;;;2.83;2.63;;;23.70;53.10;;;;;;4955549;29;20043;-75
2021/08/25 06:12:53;;;;;;;3.00;2.55;;;23.70;53.40;;;;;;4947181;29;20061;-75
2021/08/25 06:15:18;;;;;;;2.63;2.22;;;23.80;53.70;;;;;;4944566;29;20376;-74
2021/08/25 06:17:44;;;;;;;2.58;2.38;;;23.80;54.00;;;;;;4949858;29;20083;-76
2021/08/25 06:20:11;;;;;;;2.13;1.92;;;23.90;54.50;;;;;;4945553;29;20038;-74
2021/08/25 06:22:37;;;;;;;3.03;2.13;;;23.90;55.10;;;;;;4944720;29;20031;-74
2021/08/25 06:25:03;;;;;;;2.17;2.05;;;23.90;55.30;;;;;;4948281;29;20031;-81
2021/08/25 06:27:29;;;;;;;2.45;1.88;;;24.00;55.30;;;;;;4945049;29;20027;-75
2021/08/25 06:29:55;;;;;;;2.00;1.85;;;24.10;55.30;;;;;;4945775;29;20075;-75
2021/08/25 06:32:20;;;;;;;2.45;1.45;;;24.10;55.60;;;;;;4947680;29;20115;-76
2021/08/25 06:34:46;;;;;;;1.75;1.45;;;24.20;55.70;;;;;;4945259;29;20047;-75
2021/08/25 06:37:12;;;;;;;1.17;1.08;;;24.30;55.80;;;;;;4946457;29;20054;-76
2021/08/25 06:39:38;;;;;;;2.72;1.17;;;24.40;55.90;;;;;;4943738;29;20031;-75
2021/08/25 06:42:04;;;;;;;1.23;1.08;;;24.50;56.30;;;;;;4932117;29;20032;-76
2021/08/25 06:44:29;;;;;;;1.27;1.17;;;24.50;56.40;;;;;;4934566;29;20131;-76
2021/08/25 06:46:55;;;;;;;1.23;0.80;;;24.60;56.50;;;;;;4930637;29;20039;-75
2021/08/25 06:49:21;;;;;;;0.88;0.80;;;24.60;56.60;;;;;;4927910;29;20086;-78
2021/08/25 06:51:47;;;;;;;0.75;0.75;;;24.60;56.60;;;;;;4939514;29;20038;-75
2021/08/25 06:54:13;;;;;;;0.77;0.77;;;24.70;56.70;;;;;;4940969;29;20028;-76
2021/08/25 06:56:39;;;;;;;0.77;0.77;;;24.60;56.70;;;;;;4944731;29;20114;-76
2021/08/25 06:59:05;;;;;;;0.85;0.70;;;24.60;56.70;;;;;;4939541;29;21117;-75
2021/08/25 07:01:31;;;;;;;1.13;1.05;;;24.70;56.80;;;;;;4943752;29;20070;-73
2021/08/25 07:03:56;;;;;;;1.60;0.80;;;24.70;56.90;;;;;;4940618;29;20146;-75
2021/08/25 07:06:23;;;;;;;0.65;0.65;;;24.70;57.00;;;;;;4945859;29;20099;-75
2021/08/25 07:08:49;;;;;;;0.80;0.65;;;24.80;57.10;;;;;;4941545;29;20039;-77
2021/08/25 07:11:15;;;;;;;1.02;0.93;;;24.80;57.10;;;;;;4945112;29;20452;-76
2021/08/25 07:13:41;;;;;;;1.40;0.75;;;24.80;57.20;;;;;;4944336;29;20405;-74
2021/08/25 07:16:10;;;;;;;0.65;0.65;;;24.70;57.10;;;;;;4943387;29;20079;-77
2021/08/25 07:18:37;;;;;;;0.55;0.55;;;24.70;57.30;;;;;;4941869;29;20039;-76
2021/08/25 07:21:04;;;;;;;0.75;0.75;;;24.70;57.40;;;;;;4940935;29;20027;-76
2021/08/25 07:23:30;;;;;;;0.63;0.63;;;24.70;57.50;;;;;;4944268;29;20039;-74
2021/08/25 07:25:56;;;;;;;0.47;0.47;;;24.70;57.40;;;;;;4944847;29;20075;-78
2021/08/25 07:28:22;;;;;;;0.52;0.52;;;24.80;57.40;;;;;;4949846;29;20023;-74
2021/08/25 07:30:48;;;;;;;0.43;0.40;;;24.80;57.20;;;;;;4955606;29;20035;-75
2021/08/25 07:33:15;;;;;;;0.57;0.57;;;24.80;57.10;;;;;;4935283;29;20032;-75
2021/08/25 07:35:41;;;;;;;0.52;0.52;;;24.90;57.20;;;;;;4947794;29;20035;-75
2021/08/25 07:38:07;;;;;;;0.43;0.35;;;24.90;57.30;;;;;;4918577;29;20040;-75
2021/08/25 07:40:33;;;;;;;0.52;0.40;;;24.90;57.20;;;;;;4927414;29;20087;-74
2021/08/25 07:42:58;;;;;;;0.35;0.35;;;24.90;57.20;;;;;;4950303;29;20036;-74
2021/08/25 07:45:24;;;;;;;0.32;0.32;;;24.80;57.20;;;;;;4931719;29;20039;-74
2021/08/25 07:47:50;;;;;;;0.30;0.30;;;24.80;57.10;;;;;;4936196;29;20111;-76
2021/08/25 07:50:15;;;;;;;0.57;0.57;;;24.80;57.30;;;;;;4935439;29;20040;-76
2021/08/25 07:52:42;;;;;;;0.50;0.50;;;24.80;57.80;;;;;;4936386;29;20024;-75
2021/08/25 07:55:08;;;;;;;0.52;0.52;;;24.70;58.30;;;;;;4936033;29;20063;-74
2021/08/25 07:57:34;;;;;;;0.65;0.52;;;24.70;58.30;;;;;;4936060;29;20050;-75
2021/08/25 07:59:59;;;;;;;0.52;0.52;;;24.70;58.50;;;;;;4928459;29;20477;-75
2021/08/25 08:02:25;;;;;;;0.50;0.50;;;24.70;58.50;;;;;;4917241;29;20032;-74
2021/08/25 08:04:51;;;;;;;0.57;0.57;;;24.70;58.50;;;;;;4917019;29;20034;-73
2021/08/25 08:07:16;;;;;;;0.55;0.55;;;24.60;58.30;;;;;;4928013;29;20049;-74
2021/08/25 08:09:42;;;;;;;0.55;0.45;;;24.70;58.10;;;;;;4954715;29;20054;-74
2021/08/25 08:12:08;;;;;;;0.73;0.38;;;24.70;57.90;;;;;;4908643;29;20036;-75
2021/08/25 08:14:34;;;;;;;0.43;0.43;;;24.80;57.40;;;;;;4917302;29;20036;-74
2021/08/25 08:17:01;;;;;;;0.32;0.32;;;25.00;56.80;;;;;;4918243;29;20024;-74
2021/08/25 08:19:33;;;;;;;0.20;0.20;;;25.10;56.20;;;;;;4918760;29;20040;-75
2021/08/25 08:22:00;;;;;;;0.10;0.10;;;25.30;55.90;;;;;;4935695;29;20063;-75
2021/08/25 08:24:27;;;;;;;0.17;0.17;;;25.40;55.50;;;;;;4930649;29;20498;-76
2021/08/25 08:26:53;;;;;;;0.17;0.17;;;25.50;55.30;;;;;;4935475;29;20035;-75
2021/08/25 08:29:19;;;;;;;0.22;0.22;;;25.50;55.50;;;;;;4927820;29;20039;-74
2021/08/25 08:31:44;;;;;;;0.10;0.10;;;25.50;55.80;;;;;;4918879;29;20529;-75
2021/08/25 08:34:10;;;;;;;0.20;0.00;;;25.50;56.00;;;;;;4917239;29;20145;-76
2021/08/25 08:36:36;;;;;;;0.10;0.10;;;25.50;56.10;;;;;;4943108;29;20020;-76
2021/08/25 08:39:02;;;;;;;0.20;0.20;;;25.40;55.80;;;;;;4943206;29;20031;-75
2021/08/25 08:41:28;;;;;;;0.20;0.20;;;25.40;55.90;;;;;;4925874;29;20423;-74
2021/08/25 08:43:54;;;;;;;0.22;0.22;;;25.30;56.20;;;;;;4940792;29;20086;-76
2021/08/25 08:46:22;;;;;;;0.25;0.25;;;25.20;56.40;;;;;;4940612;29;20063;-75
2021/08/25 08:48:49;;;;;;;0.10;0.10;;;25.10;56.80;;;;;;4939820;29;20375;-75
2021/08/25 08:51:23;;;;;;;0.32;0.32;;;25.00;57.00;;;;;;4915348;29;20048;-75
2021/08/25 08:53:50;;;;;;;0.43;0.43;;;24.90;57.30;;;;;;4901845;29;20020;-74
2021/08/25 08:56:16;;;;;;;0.30;0.30;;;24.90;57.30;;;;;;4934683;29;20051;-75
2021/08/25 08:58:43;;;;;;;0.57;0.43;;;24.80;57.40;;;;;;4918432;29;20142;-73
2021/08/25 09:01:09;;;;;;;0.28;0.28;;;24.80;57.40;;;;;;4916927;29;20110;-75
2021/08/25 09:03:40;;;;;;;0.30;0.30;;;24.80;57.50;;;;;;4936029;29;20031;-76
2021/08/25 09:06:07;;;;;;;0.38;0.38;;;24.80;57.50;;;;;;4937613;29;20039;-74
2021/08/25 09:08:39;;;;;;;0.70;0.38;;;24.80;57.50;;;;;;4923467;29;20034;-75
2021/08/25 09:11:19;;;;;;;0.55;0.22;;;24.90;57.70;;;;;;4931375;29;20095;-76
2021/08/25 09:13:50;;;;;;;0.30;0.30;;;24.90;57.80;;;;;;4929851;29;20484;-75
2021/08/25 09:16:25;;;;;;;0.95;0.52;;;24.90;57.90;;;;;;4938781;29;20027;-76
2021/08/25 09:19:05;;;;;;;0.40;0.40;;;24.90;58.20;;;;;;4942776;29;20036;-77
2021/08/25 09:21:34;;;;;;;0.43;0.43;;;24.90;58.50;;;;;;4942380;29;20436;-75
2021/08/25 09:24:00;;;;;;;0.40;0.40;;;24.90;58.60;;;;;;4943760;29;20058;-74
2021/08/25 09:26:26;;;;;;;0.32;0.32;;;24.80;58.70;;;;;;4943811;29;20020;-74
2021/08/25 09:28:52;;;;;;;0.47;0.38;;;24.80;59.00;;;;;;4938720;29;20028;-76
2021/08/25 09:31:18;;;;;;;0.35;0.35;;;24.80;59.10;;;;;;4942456;29;20036;-75
2021/08/25 09:33:47;;;;;;;0.47;0.45;;;24.70;59.20;;;;;;4944152;29;20019;-75
2021/08/25 09:36:15;;;;;;;0.80;0.50;;;24.70;59.40;;;;;;4942279;29;20064;-75
2021/08/25 09:38:52;;;;;;;0.75;0.63;;;24.60;59.50;;;;;;4943654;28;20019;-75
2021/08/25 09:41:18;;;;;;;1.33;0.50;;;24.70;59.60;;;;;;4943991;29;20038;-74
2021/08/25 09:43:46;;;;;;;0.30;0.30;;;24.80;59.60;;;;;;4943029;29;20048;-75
2021/08/25 09:46:16;;;;;;;0.40;0.40;;;24.80;59.50;;;;;;4937237;29;20028;-77
2021/08/25 09:48:45;;;;;;;0.57;0.47;;;24.90;59.50;;;;;;4937311;29;20024;-76
2021/08/25 09:51:13;;;;;;;0.32;0.32;;;24.90;59.40;;;;;;4936974;29;20480;-76
2021/08/25 09:53:40;;;;;;;0.25;0.25;;;25.00;59.30;;;;;;4935200;29;20028;-75
2021/08/25 09:56:22;;;;;;;0.40;0.40;;;25.00;59.10;;;;;;4924031;29;20032;-75
2021/08/25 09:58:48;;;;;;;0.45;0.38;;;25.00;59.00;;;;;;4919119;29;20033;-74
2021/08/25 10:01:16;;;;;;;0.22;0.22;;;25.10;58.90;;;;;;4919454;29;20028;-74
2021/08/25 10:03:42;;;;;;;0.30;0.30;;;25.20;58.70;;;;;;4916802;29;20098;-75
2021/08/25 10:09:30;;;;;;;0.35;0.32;;;25.40;58.10;;;;;;4900283;29;20500;-75
2021/08/25 10:11:59;;;;;;;0.20;0.20;;;25.60;57.80;;;;;;4900131;29;20040;-75
2021/08/25 10:14:31;;;;;;;0.10;0.10;;;25.70;57.60;;;;;;4902331;29;20032;-74
2021/08/25 10:16:56;;;;;;;0.00;0.00;;;25.90;57.10;;;;;;4911490;29;20056;-75
2021/08/25 10:19:27;;;;;;;0.00;0.00;;;26.10;56.70;;;;;;4914990;29;20120;-75
2021/08/25 10:21:56;;;;;;;0.00;0.00;;;26.20;56.20;;;;;;4903884;29;20043;-75
2021/08/25 10:24:22;;;;;;;0.10;0.10;;;26.40;55.70;;;;;;4930506;29;20028;-75
2021/08/25 10:27:00;;;;;;;0.10;0.10;;;26.70;55.30;;;;;;4920811;29;20031;-75
2021/08/25 10:29:27;;;;;;;0.00;0.00;;;27.00;54.60;;;;;;4919174;29;20040;-75
2021/08/25 10:31:53;;;;;;;0.28;0.10;;;27.30;54.00;;;;;;4916145;29;20033;-75
2021/08/25 10:34:27;;;;;;;0.00;0.00;;;27.40;53.30;;;;;;4900335;29;20039;-76
2021/08/25 10:37:12;;;;;;;;;;;27.60;52.90;;;;;;4919308;29;20417;-75
2021/08/25 10:39:40;;;;;;;0.10;0.10;;;27.70;53.60;;;;;;4930761;29;19906;-75
2021/08/25 10:42:07;;;;;;;0.00;0.00;;;27.80;52.50;;;;;;4937321;29;20078;-76
2021/08/25 10:44:39;;;;;;;0.00;0.00;;;27.90;52.00;;;;;;4925527;29;20052;-75
2021/08/25 10:47:10;;;;;;;0.00;0.00;;;27.90;51.20;;;;;;4949174;29;20024;-75
2021/08/25 10:49:39;;;;;;;0.00;0.00;;;27.80;50.90;;;;;;4942869;29;20044;-78
2021/08/25 10:52:13;;;;;;;0.00;0.00;;;27.80;50.60;;;;;;4917757;29;20028;-76
2021/08/25 10:54:40;;;;;;;0.00;0.00;;;27.80;50.50;;;;;;4928942;29;20472;-77
2021/08/25 10:57:08;;;;;;;0.05;0.05;;;27.80;50.20;;;;;;4905590;29;20036;-78
2021/08/25 11:02:00;;;;;;;0.10;0.00;;;27.90;50.00;;;;;;4919390;29;20510;-74
2021/08/25 11:04:26;;;;;;;0.10;0.10;;;27.90;49.90;;;;;;4925775;29;20040;-74
2021/08/25 11:07:02;;;;;;;0.00;0.00;;;27.90;49.90;;;;;;4907827;29;20036;-75
2021/08/25 11:09:30;;;;;;;0.00;0.00;;;28.00;49.80;;;;;;4932566;29;20127;-75
2021/08/25 11:11:57;;;;;;;0.00;0.00;;;28.20;49.60;;;;;;4921204;29;20036;-74
2021/08/25 11:14:27;;;;;;;0.35;0.00;;;28.50;49.30;;;;;;4927713;29;20034;-74
2021/08/25 11:16:55;;;;;;;0.00;0.00;;;28.90;49.00;;;;;;4925284;29;20059;-75
2021/08/25 11:19:30;;;;;;;0.00;0.00;;;29.10;48.80;;;;;;4921133;29;20024;-77
2021/08/25 11:21:57;;;;;;;0.00;0.00;;;29.30;48.40;;;;;;4930705;29;20067;-75
2021/08/25 11:24:23;;;;;;;0.00;0.00;;;29.30;48.10;;;;;;4917492;29;20400;-75
2021/08/25 11:26:49;;;;;;;0.10;0.10;;;29.40;47.90;;;;;;4922029;29;20024;-75
2021/08/25 11:29:20;;;;;;;0.00;0.00;;;30.00;47.80;;;;;;4949990;29;20039;-76
2021/08/25 11:31:46;;;;;;;0.00;0.00;;;31.10;47.30;;;;;;4951227;29;20079;-74
2021/08/25 11:34:13;;;;;;;0.00;0.00;;;32.20;46.00;;;;;;4931375;29;20487;-77
2021/08/25 11:37:18;;;;;;;0.10;0.10;;;33.30;44.80;;;;;;4917790;29;20028;-75
2021/08/25 11:39:56;;;;;;;0.10;0.10;;;34.40;43.60;;;;;;4869048;29;20038;-75
2021/08/25 11:42:33;;;;;;;0.00;0.00;;;35.40;42.50;;;;;;4911759;29;20044;-74
2021/08/25 11:45:00;;;;;;;0.00;0.00;;;36.30;41.20;;;;;;4934701;29;20047;-76
2021/08/25 11:47:27;;;;;;;0.00;0.00;;;37.10;40.60;;;;;;4935254;29;20028;-76
2021/08/25 11:49:56;;;;;;;0.08;0.08;;;38.00;39.80;;;;;;4946372;29;20039;-75
2021/08/25 11:52:35;;;;;;;0.00;0.00;;;38.90;38.60;;;;;;4955036;29;20135;-75
2021/08/25 11:55:05;;;;;;;0.00;0.00;;;39.80;37.40;;;;;;4955004;29;20039;-75
2021/08/25 11:57:51;;;;;;;0.00;0.00;;;40.50;36.50;;;;;;4934896;29;20460;-75
2021/08/25 12:00:23;;;;;;;0.10;0.10;;;41.30;35.70;;;;;;4935888;29;20031;-75
2021/08/25 12:03:00;;;;;;;0.10;0.10;;;41.80;35.00;;;;;;4926743;29;20024;-75
2021/08/25 12:05:37;;;;;;;0.00;0.00;;;42.10;34.60;;;;;;4915978;29;20047;-76
2021/08/25 12:08:41;;;;;;;0.00;0.00;;;42.40;34.40;;;;;;4929307;29;20039;-90
2021/08/25 12:11:08;;;;;;;0.10;0.10;;;42.20;34.20;;;;;;4923006;29;20194;-75
2021/08/25 12:13:43;;;;;;;0.10;0.10;;;42.20;34.40;;;;;;4923965;29;20020;-75
2021/08/25 12:16:33;;;;;;;0.00;0.00;;;42.10;34.10;;;;;;4920958;29;20071;-75
2021/08/25 12:19:03;;;;;;;0.00;0.00;;;42.00;34.20;;;;;;4923042;29;20035;-76
2021/08/25 12:21:36;;;;;;;0.10;0.10;;;41.60;34.30;;;;;;4923668;29;20028;-76
2021/08/25 12:24:06;;;;;;;0.00;0.00;;;41.30;34.60;;;;;;4951037;29;20050;-74
2021/08/25 12:26:34;;;;;;;0.10;0.10;;;40.70;34.70;;;;;;4953456;29;20475;-76
2021/08/25 12:29:01;;;;;;;0.00;0.00;;;39.80;35.20;;;;;;4934327;29;20047;-75
2021/08/25 12:31:29;;;;;;;0.00;0.00;;;39.10;35.90;;;;;;4933614;29;20050;-77
2021/08/25 12:34:14;;;;;;;0.00;0.00;;;38.40;36.50;;;;;;4932484;29;20039;-78
2021/08/25 12:36:56;;;;;;;0.00;0.00;;;37.70;37.00;;;;;;4923036;29;20039;-77
2021/08/25 12:39:26;;;;;;;0.00;0.00;;;37.20;37.80;;;;;;4922322;29;20064;-79
2021/08/25 12:41:52;;;;;;;0.00;0.00;;;36.80;38.30;;;;;;4923434;29;20447;-76
2021/08/25 12:44:19;;;;;;;0.00;0.00;;;36.60;38.70;;;;;;4949887;29;20075;-78
2021/08/25 12:46:59;;;;;;;0.00;0.00;;;36.50;39.10;;;;;;4954615;29;20063;-76
2021/08/25 12:49:27;;;;;;;0.00;0.00;;;36.40;39.30;;;;;;4926246;29;20032;-75
2021/08/25 12:51:54;;;;;;;0.00;0.00;;;36.30;39.50;;;;;;4930084;29;20036;-75